Terminal Aerodrome Forecast
Issued by NWS

Home | Current Version | Previous Version | Text Only | Print | Product List | Glossary On
Versions: 1 2 3 4 5 6 7 8 9 10 11 12 13 14 15 16 17 18 19
000
FTUS43 KLSX 221450 AAC
TAFSUS
TAF AMD
KSUS 221450Z 2215/2312 02007KT 6SM BR VCSH OVC015
     FM222000 01008KT P6SM VCSH OVC050
     FM222300 34014G23KT P6SM OVC050
     FM230300 33012G22KT P6SM OVC015=

USA.gov is the U.S. government's official web portal to all federal, state and local government web resources and services.